createdAt,value
2018-04-24T00:00:14.307Z,3.60
2018-04-24T00:02:43.775Z,3.83
2018-04-24T00:05:13.292Z,3.90
2018-04-24T00:07:42.800Z,4.17
2018-04-24T00:10:12.236Z,3.93
2018-04-24T00:12:41.441Z,3.83
2018-04-24T00:15:10.918Z,3.73
2018-04-24T00:17:40.431Z,3.77
2018-04-24T00:20:09.935Z,4.10
2018-04-24T00:22:39.469Z,4.00
2018-04-24T00:25:08.661Z,4.03
2018-04-24T00:27:37.873Z,3.40
2018-04-24T00:30:07.069Z,3.43
2018-04-24T00:32:36.557Z,3.40
2018-04-24T00:35:06.273Z,3.93
2018-04-24T00:37:35.581Z,3.13
2018-04-24T00:40:04.784Z,2.77
2018-04-24T00:42:34.147Z,3.13
2018-04-24T00:45:03.618Z,3.13
2018-04-24T00:47:33.128Z,2.90
2018-04-24T00:50:02.610Z,2.40
2018-04-24T00:52:32.147Z,2.67
2018-04-24T00:55:01.665Z,2.37
2018-04-24T00:57:31.012Z,2.27
2018-04-24T01:00:00.476Z,2.00
2018-04-24T01:02:29.676Z,2.43
2018-04-24T01:04:58.879Z,1.87
2018-04-24T01:07:28.380Z,2.30
2018-04-24T01:09:58.607Z,1.90
2018-04-24T01:12:28.051Z,1.67
2018-04-24T01:14:57.522Z,1.90
2018-04-24T01:20:05.443Z,2.00
2018-04-24T01:22:35.028Z,1.60
2018-04-24T01:25:04.227Z,1.80
2018-04-24T01:27:33.736Z,1.67
2018-04-24T01:30:03.023Z,2.07
2018-04-24T01:32:32.588Z,1.53
2018-04-24T01:35:02.064Z,1.57
2018-04-24T01:37:31.538Z,1.70
2018-04-24T01:40:01.079Z,1.83
2018-04-24T01:42:31.467Z,1.63
2018-04-24T01:45:01.047Z,1.50
2018-04-24T01:47:30.559Z,1.70
2018-04-24T01:50:00.169Z,1.50
2018-04-24T01:52:29.359Z,1.60
2018-04-24T01:54:58.848Z,1.63
2018-04-24T01:57:28.471Z,1.60
2018-04-24T01:59:57.971Z,1.77
2018-04-24T02:04:48.939Z,1.80
2018-04-24T02:07:18.440Z,1.90
2018-04-24T02:09:47.949Z,1.80
2018-04-24T02:12:17.474Z,1.70
2018-04-24T02:14:46.967Z,2.03
2018-04-24T02:17:16.561Z,1.60
2018-04-24T02:19:45.932Z,1.70
2018-04-24T02:22:15.494Z,1.40
2018-04-24T02:24:44.984Z,1.67
2018-04-24T02:27:14.487Z,1.77
2018-04-24T02:29:43.995Z,1.60
2018-04-24T02:32:13.504Z,1.70
2018-04-24T02:34:42.808Z,1.63
2018-04-24T02:37:12.215Z,1.80
2018-04-24T02:39:41.528Z,1.60
2018-04-24T02:42:10.730Z,1.80
2018-04-24T02:44:40.183Z,2.20
2018-04-24T02:47:09.387Z,1.80
2018-04-24T02:49:38.944Z,1.80
2018-04-24T02:52:08.401Z,1.80
2018-04-24T02:54:37.596Z,2.07
2018-04-24T02:57:06.794Z,1.80
2018-04-24T02:59:36.288Z,2.07
2018-04-24T03:02:05.536Z,1.73
2018-04-24T03:04:35.003Z,2.10
2018-04-24T03:07:04.507Z,2.03
2018-04-24T03:09:33.913Z,2.10
2018-04-24T03:12:03.395Z,1.80
2018-04-24T03:14:32.915Z,1.87
2018-04-24T03:17:02.443Z,2.30
2018-04-24T03:19:32.392Z,1.73
2018-04-24T03:22:02.591Z,1.93
2018-04-24T03:24:32.201Z,1.70
2018-04-24T03:27:01.815Z,1.80
2018-04-24T03:29:31.287Z,2.17
2018-04-24T03:32:00.490Z,1.80
2018-04-24T03:34:30.108Z,1.90
2018-04-24T03:36:59.572Z,2.33
2018-04-24T03:39:29.019Z,1.97
2018-04-24T03:41:58.448Z,2.07
2018-04-24T03:44:27.939Z,2.03
2018-04-24T03:46:57.147Z,1.80
2018-04-24T03:49:26.674Z,1.80
2018-04-24T03:51:56.183Z,1.73
2018-04-24T03:54:25.488Z,1.90
2018-04-24T03:56:54.999Z,2.17
2018-04-24T03:59:24.484Z,1.90
2018-04-24T04:01:54.525Z,1.60
2018-04-24T04:04:24.037Z,2.13
2018-04-24T04:06:53.548Z,1.70
2018-04-24T04:09:22.952Z,1.70
2018-04-24T04:11:52.471Z,2.03
2018-04-24T04:14:22.792Z,2.20
2018-04-24T04:16:52.297Z,2.20
2018-04-24T04:19:27.696Z,2.30
2018-04-24T04:22:03.084Z,2.60
2018-04-24T04:24:38.503Z,1.90
2018-04-24T04:27:08.001Z,1.80
2018-04-24T04:29:37.227Z,1.97
2018-04-24T04:32:06.749Z,2.20
2018-04-24T04:34:36.121Z,2.00
2018-04-24T04:37:05.664Z,1.67
2018-04-24T04:39:34.860Z,2.33
2018-04-24T04:42:04.355Z,2.07
2018-04-24T04:44:33.576Z,2.57
2018-04-24T04:47:03.095Z,2.03
2018-04-24T04:49:32.571Z,2.10
2018-04-24T04:52:02.092Z,1.97
2018-04-24T04:54:31.288Z,1.90
2018-04-24T04:57:00.795Z,2.27
2018-04-24T04:59:30.304Z,1.90
2018-04-24T05:01:59.504Z,2.03
2018-04-24T05:04:28.933Z,2.43
2018-04-24T05:06:58.355Z,2.20
2018-04-24T05:09:27.687Z,1.97
2018-04-24T05:11:57.364Z,2.00
2018-04-24T05:14:26.871Z,1.70
2018-04-24T05:16:56.356Z,2.23
2018-04-24T05:19:25.892Z,2.20
2018-04-24T05:21:55.395Z,2.50
2018-04-24T05:24:24.905Z,2.17
2018-04-24T05:26:54.493Z,1.97
2018-04-24T05:29:23.998Z,1.87
2018-04-24T05:31:53.463Z,2.10
2018-04-24T05:34:22.725Z,1.90
2018-04-24T05:36:51.879Z,1.73
2018-04-24T05:39:21.320Z,1.77
2018-04-24T05:41:50.956Z,2.13
2018-04-24T05:44:20.450Z,1.80
2018-04-24T05:46:50.894Z,2.00
2018-04-24T05:49:20.351Z,1.63
2018-04-24T05:51:49.611Z,1.53
2018-04-24T05:54:19.055Z,1.70
2018-04-24T05:56:48.257Z,1.70
2018-04-24T05:59:17.828Z,1.87
2018-04-24T06:01:47.336Z,1.53
2018-04-24T06:04:16.819Z,1.73
2018-04-24T06:06:46.341Z,2.00
2018-04-24T06:09:15.794Z,1.60
2018-04-24T06:11:45.256Z,1.73
2018-04-24T06:14:17.781Z,1.37
2018-04-24T06:16:47.359Z,1.73
2018-04-24T06:19:16.989Z,1.90
2018-04-24T06:21:46.479Z,1.67
2018-04-24T06:24:15.941Z,1.63
2018-04-24T06:26:45.498Z,1.53
2018-04-24T06:29:15.825Z,2.97
2018-04-24T06:31:45.303Z,1.40
2018-04-24T06:34:14.530Z,1.33
2018-04-24T06:36:44.018Z,1.40
2018-04-24T06:39:13.388Z,1.37
2018-04-24T06:41:42.936Z,1.53
2018-04-24T06:44:12.127Z,1.47
2018-04-24T06:46:41.513Z,1.20
2018-04-24T06:49:11.048Z,1.50
2018-04-24T06:51:40.511Z,1.40
2018-04-24T06:54:09.735Z,1.37
2018-04-24T06:56:38.931Z,1.20
2018-04-24T06:59:08.376Z,1.40
2018-04-24T07:01:37.951Z,1.30
2018-04-24T07:04:07.520Z,1.70
2018-04-24T07:06:37.013Z,1.63
2018-04-24T07:09:06.507Z,1.80
2018-04-24T07:11:35.703Z,1.70
2018-04-24T07:14:05.711Z,1.50
2018-04-24T07:16:35.275Z,2.10
2018-04-24T07:19:04.511Z,1.50
2018-04-24T07:21:34.052Z,1.90
2018-04-24T07:24:03.488Z,1.33
2018-04-24T07:26:32.997Z,1.40
2018-04-24T07:29:02.433Z,1.97
2018-04-24T07:31:32.118Z,1.20
2018-04-24T07:34:01.595Z,1.10
2018-04-24T07:36:31.723Z,1.30
2018-04-24T07:39:01.339Z,1.37
2018-04-24T07:41:30.975Z,1.50
2018-04-24T07:44:00.455Z,1.50
2018-04-24T07:46:29.708Z,1.60
2018-04-24T07:48:59.282Z,1.50
2018-04-24T07:51:29.464Z,1.70
2018-04-24T07:53:59.011Z,1.67
2018-04-24T07:56:28.514Z,1.40
2018-04-24T07:58:57.711Z,1.20
2018-04-24T08:01:27.251Z,1.20
2018-04-24T08:03:57.549Z,1.63
2018-04-24T08:06:27.883Z,1.37
2018-04-24T08:08:57.267Z,1.23
2018-04-24T08:11:26.799Z,1.00
2018-04-24T08:13:56.335Z,1.90
2018-04-24T08:16:27.642Z,1.83
2018-04-24T08:18:57.063Z,1.47
2018-04-24T08:21:33.483Z,1.40
2018-04-24T08:24:02.935Z,1.73
2018-04-24T08:26:32.444Z,1.77
2018-04-24T08:29:01.981Z,1.47
2018-04-24T08:31:32.000Z,1.50
2018-04-24T08:34:01.429Z,1.40
2018-04-24T08:36:30.815Z,1.07
2018-04-24T08:39:00.121Z,1.30
2018-04-24T08:41:29.707Z,1.57
2018-04-24T08:43:58.903Z,1.60
2018-04-24T08:46:28.442Z,1.20
2018-04-24T08:48:57.748Z,1.70
2018-04-24T08:51:27.260Z,1.30
2018-04-24T08:53:56.456Z,1.23
2018-04-24T08:56:26.149Z,1.50
2018-04-24T08:58:55.707Z,1.20
2018-04-24T09:01:25.189Z,1.33
2018-04-24T09:03:55.366Z,1.13
2018-04-24T09:06:24.820Z,1.10
2018-04-24T09:08:54.312Z,1.37
2018-04-24T09:11:23.515Z,1.00
2018-04-24T09:13:52.706Z,1.60
2018-04-24T09:16:22.139Z,1.10
2018-04-24T09:18:51.561Z,1.53
2018-04-24T09:21:21.058Z,1.30
2018-04-24T09:23:50.403Z,1.83
2018-04-24T09:26:20.399Z,1.40
2018-04-24T09:28:50.064Z,1.20
2018-04-24T09:31:19.591Z,1.30
2018-04-24T09:33:49.798Z,1.63
2018-04-24T09:36:19.307Z,1.20
2018-04-24T09:38:49.541Z,1.43
2018-04-24T09:41:19.081Z,1.10
2018-04-24T09:43:48.513Z,1.13
2018-04-24T09:46:17.776Z,1.10
2018-04-24T09:48:46.995Z,1.43
2018-04-24T09:51:16.513Z,1.40
2018-04-24T09:53:45.715Z,1.23
2018-04-24T09:56:15.175Z,1.17
2018-04-24T09:58:44.671Z,1.20
2018-04-24T10:01:13.867Z,1.13
2018-04-24T10:03:43.336Z,1.70
2018-04-24T10:06:13.013Z,1.33
2018-04-24T10:08:42.440Z,1.10
2018-04-24T10:11:11.958Z,1.10
2018-04-24T10:13:41.527Z,1.10
2018-04-24T10:16:11.774Z,0.90
2018-04-24T10:18:40.980Z,1.50
2018-04-24T10:21:10.502Z,1.10
2018-04-24T10:23:40.010Z,1.10
2018-04-24T10:26:09.499Z,1.13
2018-04-24T10:28:39.203Z,1.17
2018-04-24T10:31:08.928Z,2.03
2018-04-24T10:33:38.631Z,1.20
2018-04-24T10:36:07.911Z,1.50
2018-04-24T10:38:37.455Z,1.53
2018-04-24T10:41:06.715Z,1.23
2018-04-24T10:43:36.259Z,0.90
2018-04-24T10:46:05.516Z,1.03
2018-04-24T10:48:35.102Z,1.30
2018-04-24T10:51:04.757Z,1.30
2018-04-24T10:53:34.017Z,1.13
2018-04-24T10:56:03.268Z,1.20
2018-04-24T10:58:32.730Z,0.90
2018-04-24T11:01:02.080Z,1.17
2018-04-24T11:03:32.337Z,0.83
2018-04-24T11:06:01.847Z,1.03
2018-04-24T11:08:31.420Z,1.33
2018-04-24T11:11:00.968Z,0.87
2018-04-24T11:13:30.747Z,0.80
2018-04-24T11:16:00.712Z,1.10
2018-04-24T11:18:30.143Z,0.80
2018-04-24T11:21:00.076Z,1.03
2018-04-24T11:23:29.660Z,0.80
2018-04-24T11:25:59.169Z,1.00
2018-04-24T11:28:28.663Z,0.80
2018-04-24T11:30:57.870Z,0.90
2018-04-24T11:33:27.311Z,0.93
2018-04-24T11:35:56.946Z,1.00
2018-04-24T11:38:26.514Z,1.00
2018-04-24T11:40:55.715Z,1.47
2018-04-24T11:43:24.920Z,1.07
2018-04-24T11:45:54.499Z,0.93
2018-04-24T11:48:24.219Z,1.63
2018-04-24T11:50:53.755Z,1.07
2018-04-24T11:53:23.260Z,1.00
2018-04-24T11:55:54.615Z,1.10
2018-04-24T11:58:23.866Z,0.90
2018-04-24T12:00:53.064Z,1.00
2018-04-24T12:03:22.255Z,1.23
2018-04-24T12:05:51.695Z,1.10
2018-04-24T12:08:21.125Z,0.70
2018-04-24T12:10:50.352Z,0.90
2018-04-24T12:13:19.882Z,0.80
2018-04-24T12:15:49.161Z,1.00
2018-04-24T12:18:19.343Z,0.90
2018-04-24T12:20:48.955Z,0.83
2018-04-24T12:23:18.492Z,0.80
2018-04-24T12:25:48.002Z,1.03
2018-04-24T12:28:17.438Z,1.07
2018-04-24T12:30:47.019Z,1.00
2018-04-24T12:33:16.249Z,0.80
2018-04-24T12:35:45.835Z,0.90
2018-04-24T12:38:15.037Z,1.00
2018-04-24T12:40:45.058Z,0.90
2018-04-24T12:43:14.535Z,1.03
2018-04-24T12:45:44.048Z,1.30
2018-04-24T12:48:13.664Z,1.30
2018-04-24T12:50:43.271Z,1.10
2018-04-24T12:53:12.846Z,1.30
2018-04-24T12:55:42.078Z,1.20
2018-04-24T12:58:11.795Z,1.10
2018-04-24T13:00:41.271Z,1.00
2018-04-24T13:03:10.919Z,1.30
2018-04-24T13:05:41.222Z,1.10
2018-04-24T13:08:10.377Z,1.17
2018-04-24T13:10:39.855Z,1.00
2018-04-24T13:13:09.366Z,1.03
2018-04-24T13:15:38.624Z,1.20
2018-04-24T13:18:07.824Z,0.80
2018-04-24T13:20:37.138Z,1.10
2018-04-24T13:23:06.619Z,1.00
2018-04-24T13:25:36.159Z,0.80
2018-04-24T13:28:05.709Z,0.90
2018-04-24T13:30:35.213Z,1.20
2018-04-24T13:33:04.829Z,0.90
2018-04-24T13:35:34.435Z,1.00
2018-04-24T13:38:03.971Z,1.00
2018-04-24T13:40:33.417Z,0.80
2018-04-24T13:43:02.972Z,1.33
2018-04-24T13:45:32.497Z,0.70
2018-04-24T13:48:01.985Z,0.87
2018-04-24T13:50:32.512Z,0.70
2018-04-24T13:53:02.637Z,1.10
2018-04-24T13:55:32.109Z,0.90
2018-04-24T13:58:01.553Z,1.00
2018-04-24T14:00:31.092Z,0.80
2018-04-24T14:03:01.415Z,0.83
2018-04-24T14:05:30.879Z,0.80
2018-04-24T14:08:00.404Z,0.90
2018-04-24T14:10:30.765Z,0.90
2018-04-24T14:13:00.884Z,0.93
2018-04-24T14:15:30.079Z,0.90
2018-04-24T14:17:59.431Z,0.80
2018-04-24T14:20:29.004Z,0.90
2018-04-24T14:22:58.511Z,1.00
2018-04-24T14:25:28.123Z,0.70
2018-04-24T14:27:57.571Z,1.10
2018-04-24T14:30:27.112Z,1.20
2018-04-24T14:32:56.891Z,1.20
2018-04-24T14:35:26.283Z,0.90
2018-04-24T14:37:55.974Z,0.80
2018-04-24T14:40:25.524Z,1.07
2018-04-24T14:42:55.596Z,0.80
2018-04-24T14:45:25.203Z,0.70
2018-04-24T14:47:55.546Z,0.90
2018-04-24T14:50:25.004Z,1.10
2018-04-24T14:52:54.401Z,1.13
2018-04-24T14:55:23.974Z,0.80
2018-04-24T14:57:53.177Z,1.10
2018-04-24T15:00:22.414Z,1.30
2018-04-24T15:02:51.614Z,0.90
2018-04-24T15:05:20.821Z,1.03
2018-04-24T15:07:50.364Z,1.20
2018-04-24T15:10:19.871Z,1.10
2018-04-24T15:12:49.383Z,1.33
2018-04-24T15:15:19.699Z,0.90
2018-04-24T15:17:49.221Z,0.93
2018-04-24T15:20:18.423Z,0.80
2018-04-24T15:22:48.648Z,1.00
2018-04-24T15:25:18.390Z,0.70
2018-04-24T15:27:48.009Z,0.80
2018-04-24T15:30:17.212Z,0.93
2018-04-24T15:32:47.328Z,1.03
2018-04-24T15:35:16.635Z,0.90
2018-04-24T15:37:46.115Z,0.93
2018-04-24T15:40:16.457Z,1.20
2018-04-24T15:42:45.945Z,0.80
2018-04-24T15:45:15.611Z,0.90
2018-04-24T15:47:45.915Z,1.00
2018-04-24T15:50:15.351Z,0.80
2018-04-24T15:52:44.691Z,1.20
2018-04-24T15:55:14.232Z,1.23
2018-04-24T15:57:43.432Z,0.93
2018-04-24T16:00:12.916Z,1.03
2018-04-24T16:02:42.425Z,1.00
2018-04-24T16:05:11.936Z,0.93
2018-04-24T16:07:41.472Z,0.80
2018-04-24T16:10:10.935Z,0.87
2018-04-24T16:12:40.399Z,0.93
2018-04-24T16:15:09.655Z,1.33
2018-04-24T16:17:39.181Z,1.23
2018-04-24T16:20:08.687Z,1.13
2018-04-24T16:22:38.305Z,1.00
2018-04-24T16:25:07.499Z,0.90
2018-04-24T16:27:37.532Z,1.00
2018-04-24T16:30:07.099Z,1.10
2018-04-24T16:32:36.517Z,1.03
2018-04-24T16:35:07.887Z,0.80
2018-04-24T16:37:37.230Z,0.90
2018-04-24T16:40:06.709Z,0.90
2018-04-24T16:42:36.244Z,1.03
2018-04-24T16:45:07.111Z,0.87
2018-04-24T16:47:36.468Z,1.00
2018-04-24T16:50:06.003Z,0.80
2018-04-24T16:52:35.475Z,1.40
2018-04-24T16:55:04.848Z,1.00
2018-04-24T16:57:34.292Z,1.00
2018-04-24T17:00:03.828Z,1.33
2018-04-24T17:02:33.048Z,1.20
2018-04-24T17:05:02.539Z,0.90
2018-04-24T17:07:31.989Z,0.97
2018-04-24T17:10:01.188Z,1.20
2018-04-24T17:12:31.612Z,0.93
2018-04-24T17:15:01.376Z,0.80
2018-04-24T17:17:31.040Z,1.00
2018-04-24T17:20:00.612Z,0.90
2018-04-24T17:22:30.063Z,1.00
2018-04-24T17:24:59.507Z,1.20
2018-04-24T17:27:29.018Z,0.97
2018-04-24T17:29:58.460Z,1.07
2018-04-24T17:32:27.958Z,1.00
2018-04-24T17:34:57.161Z,1.20
2018-04-24T17:37:26.743Z,1.17
2018-04-24T17:39:56.254Z,1.03
2018-04-24T17:42:25.747Z,1.10
2018-04-24T17:44:55.505Z,0.73
2018-04-24T17:47:24.991Z,1.03
2018-04-24T17:49:54.571Z,1.13
2018-04-24T17:52:24.031Z,1.00
2018-04-24T17:54:56.880Z,0.90
2018-04-24T18:00:14.027Z,0.90
2018-04-24T18:02:43.495Z,1.00
2018-04-24T18:05:12.696Z,1.07
2018-04-24T18:07:42.852Z,1.00
2018-04-24T18:10:12.467Z,1.10
2018-04-24T18:12:42.328Z,1.10
2018-04-24T18:15:11.821Z,1.00
2018-04-24T18:17:41.027Z,0.90
2018-04-24T18:20:10.508Z,1.00
2018-04-24T18:22:39.849Z,1.00
2018-04-24T18:25:09.419Z,0.97
2018-04-24T18:27:38.848Z,1.00
2018-04-24T18:30:08.364Z,0.90
2018-04-24T18:32:37.872Z,1.10
2018-04-24T18:35:07.381Z,1.03
2018-04-24T18:37:36.865Z,1.20
2018-04-24T18:40:06.301Z,1.10
2018-04-24T18:42:35.883Z,1.10
2018-04-24T18:45:05.087Z,1.03
2018-04-24T18:47:34.287Z,1.00
2018-04-24T18:50:03.517Z,1.40
2018-04-24T18:52:32.999Z,1.10
2018-04-24T18:55:02.223Z,1.30
2018-04-24T18:57:31.835Z,1.30
2018-04-24T19:00:02.471Z,1.30
2018-04-24T19:02:31.687Z,1.30
2018-04-24T19:05:01.252Z,0.90
2018-04-24T19:07:30.758Z,1.23
2018-04-24T19:10:00.187Z,1.43
2018-04-24T19:12:29.430Z,1.37
2018-04-24T19:14:59.011Z,1.60
2018-04-24T19:17:28.519Z,1.60
2018-04-24T19:19:57.771Z,2.17
2018-04-24T19:22:27.307Z,1.77
2018-04-24T19:25:02.421Z,1.50
2018-04-24T19:27:32.059Z,1.30
2018-04-24T19:30:01.839Z,1.60
2018-04-24T19:32:31.753Z,1.50
2018-04-24T19:35:01.331Z,1.77
2018-04-24T19:37:30.927Z,1.43
2018-04-24T19:40:06.503Z,1.40
2018-04-24T19:42:36.096Z,1.50
2018-04-24T19:45:05.609Z,1.70
2018-04-24T19:47:34.829Z,1.77
2018-04-24T19:50:09.893Z,1.70
2018-04-24T19:52:39.454Z,1.90
2018-04-24T19:55:14.898Z,1.80
2018-04-24T19:57:44.385Z,2.20
2018-04-24T20:00:13.922Z,1.67
2018-04-24T20:02:43.425Z,1.47
2018-04-24T20:05:12.912Z,1.60
2018-04-24T20:07:43.065Z,1.60
2018-04-24T20:10:13.276Z,1.57
2018-04-24T20:12:42.793Z,1.60
2018-04-24T20:15:11.995Z,1.80
2018-04-24T20:17:41.503Z,1.50
2018-04-24T20:20:10.715Z,1.90
2018-04-24T20:22:40.186Z,1.80
2018-04-24T20:25:09.715Z,1.63
2018-04-24T20:27:39.234Z,1.40
2018-04-24T20:30:08.435Z,1.63
2018-04-24T20:32:38.967Z,2.03
2018-04-24T20:35:08.319Z,1.90
2018-04-24T20:37:37.635Z,2.20
2018-04-24T20:40:06.831Z,2.50
2018-04-24T20:42:36.388Z,2.17
2018-04-24T20:45:05.916Z,2.17
2018-04-24T20:47:35.201Z,2.40
2018-04-24T20:50:04.816Z,2.23
2018-04-24T20:52:34.300Z,2.10
2018-04-24T20:55:03.504Z,2.40
2018-04-24T20:57:33.036Z,2.10
2018-04-24T21:00:02.547Z,2.20
2018-04-24T21:02:32.403Z,2.90
2018-04-24T21:05:01.872Z,2.27
2018-04-24T21:07:31.887Z,2.50
2018-04-24T21:10:01.105Z,2.10
2018-04-24T21:12:30.315Z,2.30
2018-04-24T21:14:59.877Z,2.33
2018-04-24T21:17:29.825Z,2.47
2018-04-24T21:20:00.243Z,2.10
2018-04-24T21:22:29.744Z,2.20
2018-04-24T21:24:59.270Z,2.70
2018-04-24T21:27:28.479Z,2.70
2018-04-24T21:29:57.749Z,2.30
2018-04-24T21:32:28.411Z,2.30
2018-04-24T21:34:58.997Z,2.70
2018-04-24T21:37:28.531Z,2.60
2018-04-24T21:39:57.764Z,2.23
2018-04-24T21:42:27.131Z,2.70
2018-04-24T21:44:56.677Z,2.50
2018-04-24T21:47:25.867Z,2.50
2018-04-24T21:49:55.238Z,2.47
2018-04-24T21:52:24.454Z,2.23
2018-04-24T21:54:54.451Z,2.43
2018-04-24T21:57:24.017Z,2.70
2018-04-24T21:59:53.781Z,2.17
2018-04-24T22:02:23.217Z,2.40
2018-04-24T22:04:52.748Z,2.40
2018-04-24T22:07:22.176Z,2.00
2018-04-24T22:09:51.609Z,2.30
2018-04-24T22:12:22.173Z,2.07
2018-04-24T22:14:51.810Z,2.00
2018-04-24T22:17:21.803Z,1.90
2018-04-24T22:19:51.251Z,1.87
2018-04-24T22:22:20.831Z,1.90
2018-04-24T22:24:50.683Z,1.90
2018-04-24T22:27:20.366Z,2.00
2018-04-24T22:29:49.994Z,1.50
2018-04-24T22:32:19.504Z,1.77
2018-04-24T22:34:48.907Z,1.90
2018-04-24T22:37:18.101Z,1.80
2018-04-24T22:39:47.603Z,1.80
2018-04-24T22:42:17.303Z,1.53
2018-04-24T22:44:46.826Z,1.60
2018-04-24T22:47:16.083Z,1.50
2018-04-24T22:49:45.654Z,1.60
2018-04-24T22:52:15.283Z,1.40
2018-04-24T22:54:44.863Z,1.10
2018-04-24T22:57:14.256Z,1.17
2018-04-24T22:59:43.451Z,1.03
2018-04-24T23:02:12.893Z,1.13
2018-04-24T23:04:42.380Z,1.10
2018-04-24T23:07:11.883Z,1.10
2018-04-24T23:09:47.081Z,0.97
2018-04-24T23:12:22.596Z,0.90
2018-04-24T23:14:57.947Z,1.07
2018-04-24T23:17:33.382Z,1.00
2018-04-24T23:20:08.531Z,1.00
2018-04-24T23:22:40.882Z,1.00
2018-04-24T23:25:10.405Z,1.10
2018-04-24T23:27:39.913Z,1.20
2018-04-24T23:30:09.420Z,1.07
2018-04-24T23:32:38.904Z,1.20
2018-04-24T23:35:08.102Z,1.13
2018-04-24T23:37:37.336Z,1.30
2018-04-24T23:40:07.165Z,1.30
2018-04-24T23:42:36.367Z,1.43
2018-04-24T23:45:05.831Z,1.30
2018-04-24T23:47:35.370Z,1.60
2018-04-24T23:50:04.563Z,1.50
2018-04-24T23:52:33.755Z,1.30
2018-04-24T23:55:02.959Z,1.40
2018-04-24T23:57:32.151Z,1.60
